Time,TemperatureF,DewpointF,PressureIn,WindDirection,WindDirectionDegrees,WindSpeedMPH,WindSpeedGustMPH,Humidity,HourlyPrecipIn,Conditions,Clouds,dailyrainin,SoftwareType,DateUTC
2012-10-23 00:02:00,39.2,38.7,28.39,SSE,158,0.0,0.0,98,0.00,,,0.54,meteohub,2012-10-23 07:02:00,
2012-10-23 00:07:00,39.2,38.7,28.39,SSE,158,0.0,0.0,98,0.00,,,0.00,meteohub,2012-10-23 07:07:00,
2012-10-23 00:12:00,39.2,38.7,28.39,SSE,158,0.0,0.0,98,0.00,,,0.00,meteohub,2012-10-23 07:12:00,
2012-10-23 00:17:00,39.2,38.7,28.39,SSE,158,0.0,0.0,98,0.00,,,0.00,meteohub,2012-10-23 07:17:00,
2012-10-23 00:22:00,39.2,38.7,28.39,SSE,158,0.0,0.0,98,0.00,,,0.00,meteohub,2012-10-23 07:22:00,
2012-10-23 00:27:00,39.2,38.7,28.39,SSE,158,0.0,0.0,98,0.00,,,0.00,meteohub,2012-10-23 07:27:00,
2012-10-23 00:32:00,39.4,38.8,28.39,SSE,158,0.0,0.0,98,0.00,,,0.00,meteohub,2012-10-23 07:32:00,
2012-10-23 00:37:00,39.4,38.8,28.39,SSE,158,0.0,0.0,98,0.00,,,0.00,meteohub,2012-10-23 07:37:00,
2012-10-23 00:43:00,39.4,38.8,28.42,SSE,158,0.0,0.0,98,0.00,,,0.00,meteohub,2012-10-23 07:43:00,
2012-10-23 00:48:00,39.4,38.8,28.42,SSE,158,0.0,1.0,98,0.00,,,0.00,meteohub,2012-10-23 07:48:00,
2012-10-23 00:53:00,39.4,38.8,28.42,SSE,158,0.0,1.0,98,0.00,,,0.00,meteohub,2012-10-23 07:53:00,
2012-10-23 00:59:00,39.4,38.8,28.42,SSE,158,0.0,0.0,98,0.00,,,0.00,meteohub,2012-10-23 07:59:00,
2012-10-23 01:04:00,39.4,38.8,28.42,SSE,158,0.0,0.0,98,0.00,,,0.00,meteohub,2012-10-23 08:04:00,
2012-10-23 01:10:00,39.4,38.8,28.42,SSE,158,0.0,0.0,98,0.00,,,0.00,meteohub,2012-10-23 08:10:00,
2012-10-23 01:15:00,39.6,39.0,28.42,SSE,158,0.0,0.0,98,0.00,,,0.00,meteohub,2012-10-23 08:15:00,
2012-10-23 01:20:00,39.6,39.0,28.42,SSE,158,0.0,0.0,98,0.00,,,0.00,meteohub,2012-10-23 08:20:00,
2012-10-23 01:26:00,39.6,39.0,28.42,SSE,158,0.0,0.0,98,0.00,,,0.00,meteohub,2012-10-23 08:26:00,
2012-10-23 01:31:00,39.4,38.8,28.42,SSE,158,0.0,0.0,98,0.00,,,0.00,meteohub,2012-10-23 08:31:00,
2012-10-23 01:36:00,39.4,38.8,28.42,SSE,158,0.0,0.0,98,0.00,,,0.00,meteohub,2012-10-23 08:36:00,
2012-10-23 01:41:00,39.4,38.8,28.42,SSE,158,0.0,0.0,98,0.00,,,0.00,meteohub,2012-10-23 08:41:00,
2012-10-23 01:47:00,39.4,38.8,28.42,SSE,158,0.0,0.0,98,0.00,,,0.00,meteohub,2012-10-23 08:47:00,
2012-10-23 01:52:00,39.4,38.8,28.42,SSE,158,0.0,0.0,98,0.00,,,0.00,meteohub,2012-10-23 08:52:00,
2012-10-23 01:57:00,39.4,38.8,28.42,SSE,158,0.0,0.0,98,0.00,,,0.00,meteohub,2012-10-23 08:57:00,
2012-10-23 02:02:00,39.4,38.8,28.42,SSE,158,0.0,1.0,98,0.00,,,0.00,meteohub,2012-10-23 09:02:00,
2012-10-23 02:07:00,39.4,38.8,28.42,SSE,158,0.0,1.0,98,0.00,,,0.00,meteohub,2012-10-23 09:07:00,
2012-10-23 02:12:00,39.4,38.8,28.42,SSE,158,0.0,1.0,98,0.00,,,0.00,meteohub,2012-10-23 09:12:00,
2012-10-23 02:17:00,39.4,38.8,28.42,ESE,112,1.0,1.0,98,0.00,,,0.00,meteohub,2012-10-23 09:17:00,
2012-10-23 02:22:00,39.4,38.8,28.42,ESE,112,0.0,1.0,98,0.00,,,0.00,meteohub,2012-10-23 09:22:00,
2012-10-23 02:27:00,39.4,38.8,28.42,ESE,112,1.0,1.0,98,0.00,,,0.00,meteohub,2012-10-23 09:27:00,
2012-10-23 02:32:00,39.4,38.8,28.42,ESE,112,0.0,1.0,98,0.00,,,0.00,meteohub,2012-10-23 09:32:00,
2012-10-23 02:37:00,39.4,38.8,28.42,ESE,112,0.0,1.0,98,0.00,,,0.00,meteohub,2012-10-23 09:37:00,
2012-10-23 02:42:00,39.4,38.8,28.42,ESE,112,0.0,1.0,98,0.00,,,0.00,meteohub,2012-10-23 09:42:00,
2012-10-23 02:47:00,39.4,38.8,28.42,ESE,112,0.0,2.0,98,0.00,,,0.00,meteohub,2012-10-23 09:47:00,
2012-10-23 02:52:00,39.4,38.8,28.42,ESE,112,0.0,2.0,98,0.00,,,0.00,meteohub,2012-10-23 09:52:00,
2012-10-23 02:57:00,39.4,38.8,28.42,ESE,112,0.0,0.0,98,0.00,,,0.00,meteohub,2012-10-23 09:57:00,
2012-10-23 03:02:00,39.4,38.8,28.42,ESE,112,0.0,0.0,98,0.00,,,0.00,meteohub,2012-10-23 10:02:00,
2012-10-23 03:07:00,39.4,38.8,28.42,ESE,112,0.0,0.0,98,0.00,,,0.00,meteohub,2012-10-23 10:07:00,
2012-10-23 03:12:00,39.4,38.8,28.45,North,-999,-999.0,0.0,98,0.00,,,0.00,meteohub,2012-10-23 10:12:00,
2012-10-23 03:17:00,39.6,39.0,28.45,North,-999,-999.0,0.0,98,0.00,,,0.00,meteohub,2012-10-23 10:17:00,
2012-10-23 03:22:00,39.6,39.0,28.45,North,-999,-999.0,-999.0,98,0.00,,,0.00,meteohub,2012-10-23 10:22:00,
2012-10-23 03:27:00,39.6,39.0,28.45,SSE,158,1.0,-999.0,98,0.00,,,0.00,meteohub,2012-10-23 10:27:00,
2012-10-23 03:32:00,39.6,39.0,28.45,SE,135,0.0,1.0,98,0.00,,,0.00,meteohub,2012-10-23 10:32:00,
2012-10-23 03:37:00,39.4,38.8,28.45,SSE,158,0.0,1.0,98,0.00,,,0.00,meteohub,2012-10-23 10:37:00,
2012-10-23 03:42:00,39.4,38.8,28.45,SSE,158,0.0,1.0,98,0.00,,,0.00,meteohub,2012-10-23 10:42:00,
2012-10-23 03:48:00,39.4,38.8,28.45,SSE,158,2.0,2.0,98,0.00,,,0.00,meteohub,2012-10-23 10:48:00,
2012-10-23 03:53:00,39.4,38.8,28.45,SSE,158,0.0,2.0,98,0.00,,,0.00,meteohub,2012-10-23 10:53:00,
2012-10-23 03:58:00,39.4,38.8,28.42,SSE,158,0.0,2.0,98,0.00,,,0.00,meteohub,2012-10-23 10:58:00,
2012-10-23 04:03:00,39.4,38.8,28.42,SSE,158,0.0,2.0,98,0.00,,,0.00,meteohub,2012-10-23 11:03:00,
2012-10-23 04:08:00,39.4,38.8,28.42,SE,135,2.0,2.0,98,0.00,,,0.00,meteohub,2012-10-23 11:08:00,
2012-10-23 04:14:00,39.4,38.8,28.45,SSE,158,0.0,2.0,98,0.00,,,0.00,meteohub,2012-10-23 11:14:00,
2012-10-23 04:19:00,39.4,38.8,28.45,SSE,158,2.0,2.0,98,0.00,,,0.00,meteohub,2012-10-23 11:19:00,
2012-10-23 04:25:00,39.2,38.7,28.45,SSE,158,1.0,2.0,98,0.00,,,0.00,meteohub,2012-10-23 11:25:00,
2012-10-23 04:30:00,39.2,38.7,28.45,SSE,158,0.0,2.0,98,0.00,,,0.00,meteohub,2012-10-23 11:30:00,
2012-10-23 04:35:00,39.2,38.7,28.45,SSE,158,0.0,1.0,98,0.00,,,0.00,meteohub,2012-10-23 11:35:00,
2012-10-23 04:41:00,39.2,38.7,28.45,SSE,158,0.0,1.0,98,0.04,,,0.04,meteohub,2012-10-23 11:41:00,
2012-10-23 04:46:00,39.2,38.7,28.45,SSE,158,0.0,1.0,98,0.04,,,0.04,meteohub,2012-10-23 11:46:00,
2012-10-23 04:51:00,39.2,38.7,28.45,SE,135,0.0,2.0,98,0.04,,,0.04,meteohub,2012-10-23 11:51:00,
2012-10-23 04:56:00,39.0,38.5,28.42,SE,135,2.0,2.0,98,0.04,,,0.04,meteohub,2012-10-23 11:56:00,
2012-10-23 05:01:00,39.0,38.5,28.42,NE,45,2.0,2.0,98,0.04,,,0.04,meteohub,2012-10-23 12:01:00,
2012-10-23 05:07:00,38.8,38.3,28.42,South,180,0.0,3.0,98,0.04,,,0.04,meteohub,2012-10-23 12:07:00,
2012-10-23 05:12:00,38.8,38.3,28.42,SSE,158,1.0,3.0,98,0.09,,,0.09,meteohub,2012-10-23 12:12:00,
2012-10-23 05:17:00,38.8,38.3,28.42,SSE,158,0.0,3.0,98,0.09,,,0.09,meteohub,2012-10-23 12:17:00,
2012-10-23 05:22:00,38.8,38.3,28.42,SSW,202,0.0,2.0,98,0.09,,,0.09,meteohub,2012-10-23 12:22:00,
2012-10-23 05:27:00,38.8,38.3,28.45,NE,45,1.0,2.0,98,0.09,,,0.09,meteohub,2012-10-23 12:27:00,
2012-10-23 05:32:00,38.8,38.3,28.45,ESE,112,0.0,2.0,98,0.09,,,0.09,meteohub,2012-10-23 12:32:00,
2012-10-23 05:37:00,38.8,38.3,28.45,ESE,112,0.0,2.0,98,0.13,,,0.13,meteohub,2012-10-23 12:37:00,
2012-10-23 05:42:00,38.8,38.3,28.45,SSE,158,1.0,1.0,98,0.09,,,0.13,meteohub,2012-10-23 12:42:00,
2012-10-23 05:47:00,38.8,38.3,28.45,SSE,158,0.0,1.0,98,0.09,,,0.13,meteohub,2012-10-23 12:47:00,
2012-10-23 05:52:00,38.8,38.3,28.45,SSE,158,0.0,1.0,98,0.09,,,0.13,meteohub,2012-10-23 12:52:00,
2012-10-23 05:58:00,38.8,38.3,28.45,WSW,248,1.0,3.0,98,0.09,,,0.13,meteohub,2012-10-23 12:58:00,
2012-10-23 06:03:00,38.8,38.3,28.45,SW,225,2.0,3.0,98,0.09,,,0.13,meteohub,2012-10-23 13:03:00,
2012-10-23 06:08:00,39.0,38.5,28.45,ESE,112,0.0,2.0,98,0.04,,,0.13,meteohub,2012-10-23 13:08:00,
2012-10-23 06:13:00,38.8,38.3,28.48,SE,135,3.0,3.0,98,0.04,,,0.13,meteohub,2012-10-23 13:13:00,
2012-10-23 06:18:00,38.8,38.3,28.48,SE,135,2.0,2.0,98,0.04,,,0.13,meteohub,2012-10-23 13:18:00,
2012-10-23 06:23:00,39.0,38.5,28.48,SE,135,0.0,3.0,98,0.04,,,0.13,meteohub,2012-10-23 13:23:00,
2012-10-23 06:29:00,39.0,38.5,28.48,ESE,112,0.0,3.0,98,0.04,,,0.13,meteohub,2012-10-23 13:29:00,
2012-10-23 06:34:00,39.0,38.5,28.48,East,90,0.0,2.0,98,0.00,,,0.13,meteohub,2012-10-23 13:34:00,
2012-10-23 06:40:00,39.0,38.5,28.51,WNW,292,3.0,3.0,98,0.00,,,0.13,meteohub,2012-10-23 13:40:00,
2012-10-23 06:45:00,39.0,38.5,28.51,SE,135,0.0,2.0,98,0.00,,,0.13,meteohub,2012-10-23 13:45:00,
2012-10-23 06:50:00,39.0,38.5,28.51,NNE,22,1.0,3.0,98,0.00,,,0.13,meteohub,2012-10-23 13:50:00,
2012-10-23 06:56:00,38.8,38.3,28.48,SSE,158,0.0,3.0,98,0.00,,,0.13,meteohub,2012-10-23 13:56:00,
2012-10-23 07:01:00,38.8,38.3,28.48,SSE,158,2.0,3.0,98,0.00,,,0.13,meteohub,2012-10-23 14:01:00,
2012-10-23 07:07:00,38.8,38.3,28.48,South,180,0.0,3.0,98,0.00,,,0.13,meteohub,2012-10-23 14:07:00,
2012-10-23 07:12:00,39.0,38.5,28.51,SSE,158,0.0,3.0,98,0.00,,,0.13,meteohub,2012-10-23 14:12:00,
2012-10-23 07:17:00,39.0,38.5,28.51,SSE,158,0.0,3.0,98,0.00,,,0.13,meteohub,2012-10-23 14:17:00,
2012-10-23 07:22:00,38.8,38.3,28.51,SSE,158,0.0,2.0,98,0.00,,,0.13,meteohub,2012-10-23 14:22:00,
2012-10-23 07:27:00,38.8,38.3,28.51,SSE,158,0.0,2.0,98,0.00,,,0.13,meteohub,2012-10-23 14:27:00,
2012-10-23 07:32:00,38.8,38.3,28.51,SSE,158,0.0,2.0,98,0.00,,,0.13,meteohub,2012-10-23 14:32:00,
2012-10-23 07:37:00,38.8,38.3,28.51,SSE,158,0.0,2.0,98,0.00,,,0.13,meteohub,2012-10-23 14:37:00,
2012-10-23 07:42:00,38.8,38.3,28.51,SSE,158,0.0,2.0,98,0.00,,,0.13,meteohub,2012-10-23 14:42:00,
2012-10-23 07:47:00,38.8,38.3,28.51,SSE,158,0.0,2.0,98,0.00,,,0.13,meteohub,2012-10-23 14:47:00,
2012-10-23 07:52:00,38.8,38.3,28.51,SSE,158,0.0,2.0,98,0.00,,,0.13,meteohub,2012-10-23 14:52:00,
2012-10-23 07:57:00,39.0,38.5,28.51,SE,135,0.0,1.0,98,0.00,,,0.13,meteohub,2012-10-23 14:57:00,
2012-10-23 08:02:00,39.0,38.5,28.51,East,90,0.0,1.0,98,0.00,,,0.13,meteohub,2012-10-23 15:02:00,
2012-10-23 08:07:00,39.0,38.5,28.51,ESE,112,0.0,1.0,98,0.00,,,0.13,meteohub,2012-10-23 15:07:00,
2012-10-23 08:12:00,39.0,38.5,28.51,ESE,112,0.0,1.0,98,0.00,,,0.13,meteohub,2012-10-23 15:12:00,
2012-10-23 08:17:00,39.2,38.7,28.51,ESE,112,0.0,1.0,98,0.00,,,0.13,meteohub,2012-10-23 15:17:00,
2012-10-23 08:22:00,39.4,38.8,28.51,ESE,112,0.0,0.0,98,0.00,,,0.13,meteohub,2012-10-23 15:22:00,
2012-10-23 08:27:00,39.4,38.8,28.51,ESE,112,0.0,0.0,98,0.00,,,0.13,meteohub,2012-10-23 15:27:00,
2012-10-23 08:33:00,39.6,39.0,28.51,ESE,112,0.0,0.0,98,0.00,,,0.13,meteohub,2012-10-23 15:33:00,
2012-10-23 08:38:00,39.6,39.0,28.51,SSE,158,0.0,2.0,98,0.00,,,0.13,meteohub,2012-10-23 15:38:00,
2012-10-23 08:43:00,39.6,39.0,28.51,SSE,158,0.0,2.0,98,0.00,,,0.13,meteohub,2012-10-23 15:43:00,
2012-10-23 08:48:00,39.6,39.0,28.51,SSE,158,0.0,2.0,98,0.00,,,0.13,meteohub,2012-10-23 15:48:00,
2012-10-23 08:54:00,39.6,39.0,28.54,SW,225,2.0,2.0,98,0.00,,,0.13,meteohub,2012-10-23 15:54:00,
2012-10-23 08:59:00,39.7,39.2,28.54,SE,135,0.0,1.0,98,0.00,,,0.13,meteohub,2012-10-23 15:59:00,
2012-10-23 09:04:00,39.7,39.2,28.54,SSE,158,0.0,3.0,98,0.00,,,0.13,meteohub,2012-10-23 16:04:00,
2012-10-23 09:09:00,39.7,39.2,28.54,SSE,158,0.0,3.0,98,0.00,,,0.13,meteohub,2012-10-23 16:09:00,
2012-10-23 09:14:00,39.7,39.2,28.54,SSE,158,0.0,2.0,98,0.00,,,0.13,meteohub,2012-10-23 16:14:00,
2012-10-23 09:19:00,39.7,39.2,28.54,SSE,158,0.0,2.0,98,0.00,,,0.13,meteohub,2012-10-23 16:19:00,
2012-10-23 09:24:00,39.7,39.2,28.54,SSE,158,0.0,2.0,98,0.00,,,0.13,meteohub,2012-10-23 16:24:00,
2012-10-23 09:30:00,39.7,39.2,28.54,SSE,158,0.0,2.0,98,0.00,,,0.13,meteohub,2012-10-23 16:30:00,
2012-10-23 09:35:00,39.7,39.2,28.54,SSE,158,0.0,2.0,98,0.00,,,0.13,meteohub,2012-10-23 16:35:00,
2012-10-23 09:40:00,39.9,39.4,28.54,SE,135,0.0,2.0,98,0.00,,,0.13,meteohub,2012-10-23 16:40:00,
2012-10-23 09:46:00,40.1,39.6,28.54,SE,135,0.0,2.0,98,0.00,,,0.13,meteohub,2012-10-23 16:46:00,
2012-10-23 09:51:00,40.3,39.7,28.54,SE,135,0.0,1.0,98,0.00,,,0.13,meteohub,2012-10-23 16:51:00,
2012-10-23 09:57:00,40.3,39.7,28.54,SE,135,0.0,2.0,98,0.00,,,0.13,meteohub,2012-10-23 16:57:00,
2012-10-23 10:02:00,40.3,39.7,28.54,SSE,158,0.0,2.0,98,0.00,,,0.13,meteohub,2012-10-23 17:02:00,
2012-10-23 10:07:00,40.3,39.7,28.54,SSE,158,0.0,2.0,98,0.00,,,0.13,meteohub,2012-10-23 17:07:00,
2012-10-23 10:12:00,40.3,39.7,28.54,SW,225,0.0,0.0,98,0.00,,,0.13,meteohub,2012-10-23 17:12:00,
2012-10-23 10:17:00,40.3,39.7,28.54,SSW,202,0.0,1.0,98,0.00,,,0.13,meteohub,2012-10-23 17:17:00,
2012-10-23 10:22:00,40.5,39.9,28.54,SE,135,1.0,2.0,98,0.00,,,0.13,meteohub,2012-10-23 17:22:00,
2012-10-23 10:27:00,40.6,40.1,28.57,SSE,158,0.0,3.0,98,0.00,,,0.13,meteohub,2012-10-23 17:27:00,
2012-10-23 10:32:00,40.8,40.3,28.57,SSE,158,0.0,3.0,98,0.00,,,0.13,meteohub,2012-10-23 17:32:00,
2012-10-23 10:37:00,41.0,40.5,28.57,SSE,158,0.0,3.0,98,0.00,,,0.13,meteohub,2012-10-23 17:37:00,
2012-10-23 10:42:00,40.8,40.3,28.54,East,90,0.0,3.0,98,0.00,,,0.13,meteohub,2012-10-23 17:42:00,
2012-10-23 10:47:00,40.6,40.1,28.54,SSE,158,0.0,2.0,98,0.00,,,0.13,meteohub,2012-10-23 17:47:00,
2012-10-23 10:52:00,40.6,40.1,28.54,SE,135,1.0,2.0,98,0.00,,,0.13,meteohub,2012-10-23 17:52:00,
2012-10-23 10:57:00,40.6,40.1,28.57,SE,135,1.0,2.0,98,0.00,,,0.13,meteohub,2012-10-23 17:57:00,
2012-10-23 11:03:00,41.0,40.5,28.57,SE,135,0.0,2.0,98,0.00,,,0.13,meteohub,2012-10-23 18:03:00,
2012-10-23 11:08:00,41.0,40.5,28.57,South,180,1.0,2.0,98,0.00,,,0.13,meteohub,2012-10-23 18:08:00,
2012-10-23 11:13:00,41.2,40.6,28.54,SSW,202,0.0,2.0,98,0.00,,,0.13,meteohub,2012-10-23 18:13:00,
2012-10-23 11:18:00,41.2,40.6,28.54,SSW,202,0.0,3.0,98,0.00,,,0.13,meteohub,2012-10-23 18:18:00,
2012-10-23 11:24:00,41.4,40.8,28.54,South,180,0.0,3.0,98,0.00,,,0.13,meteohub,2012-10-23 18:24:00,
2012-10-23 11:29:00,41.7,41.2,28.57,South,180,0.0,3.0,98,0.00,,,0.13,meteohub,2012-10-23 18:29:00,
2012-10-23 11:34:00,41.7,41.2,28.57,SSW,202,1.0,2.0,98,0.00,,,0.13,meteohub,2012-10-23 18:34:00,
2012-10-23 11:39:00,41.7,41.2,28.57,SSE,158,0.0,2.0,98,0.00,,,0.13,meteohub,2012-10-23 18:39:00,
2012-10-23 11:45:00,41.5,41.0,28.57,South,180,0.0,2.0,98,0.00,,,0.13,meteohub,2012-10-23 18:45:00,
2012-10-23 11:50:00,41.5,41.0,28.57,SSE,158,0.0,2.0,98,0.00,,,0.13,meteohub,2012-10-23 18:50:00,
2012-10-23 11:56:00,41.7,41.2,28.57,SSE,158,1.0,2.0,98,0.00,,,0.13,meteohub,2012-10-23 18:56:00,
2012-10-23 12:01:00,41.7,41.2,28.57,SSE,158,0.0,2.0,98,0.00,,,0.13,meteohub,2012-10-23 19:01:00,
2012-10-23 12:06:00,41.7,41.2,28.57,SSE,158,0.0,2.0,98,0.00,,,0.13,meteohub,2012-10-23 19:06:00,
2012-10-23 12:12:00,42.1,41.5,28.57,SSE,158,0.0,2.0,98,0.00,,,0.13,meteohub,2012-10-23 19:12:00,
2012-10-23 12:17:00,42.1,41.5,28.57,SE,135,0.0,2.0,98,0.00,,,0.13,meteohub,2012-10-23 19:17:00,
2012-10-23 12:22:00,42.1,41.5,28.57,SSW,202,1.0,2.0,98,0.00,,,0.13,meteohub,2012-10-23 19:22:00,
2012-10-23 12:27:00,42.1,41.5,28.57,SE,135,2.0,4.0,98,0.00,,,0.13,meteohub,2012-10-23 19:27:00,
2012-10-23 12:32:00,42.1,41.5,28.57,SE,135,0.0,4.0,98,0.00,,,0.13,meteohub,2012-10-23 19:32:00,
2012-10-23 12:37:00,42.1,41.5,28.57,SSE,158,0.0,4.0,98,0.00,,,0.13,meteohub,2012-10-23 19:37:00,
2012-10-23 12:42:00,42.3,41.7,28.57,ESE,112,0.0,2.0,98,0.00,,,0.13,meteohub,2012-10-23 19:42:00,
2012-10-23 12:47:00,42.3,41.7,28.57,SSE,158,1.0,2.0,98,0.00,,,0.13,meteohub,2012-10-23 19:47:00,
2012-10-23 12:52:00,42.4,41.9,28.57,SSE,158,1.0,3.0,98,0.00,,,0.13,meteohub,2012-10-23 19:52:00,
2012-10-23 12:57:00,42.4,41.9,28.57,SSE,158,0.0,3.0,98,0.00,,,0.13,meteohub,2012-10-23 19:57:00,
2012-10-23 13:02:00,42.8,42.3,28.57,SSE,158,0.0,2.0,98,0.00,,,0.13,meteohub,2012-10-23 20:02:00,
2012-10-23 13:07:00,42.8,42.3,28.57,SE,135,0.0,2.0,98,0.00,,,0.13,meteohub,2012-10-23 20:07:00,
2012-10-23 13:12:00,43.2,42.6,28.57,SE,135,0.0,2.0,98,0.00,,,0.13,meteohub,2012-10-23 20:12:00,
2012-10-23 13:17:00,43.3,42.8,28.57,SE,135,0.0,2.0,98,0.00,,,0.13,meteohub,2012-10-23 20:17:00,
2012-10-23 13:22:00,43.5,43.0,28.57,SSE,158,1.0,2.0,98,0.00,,,0.13,meteohub,2012-10-23 20:22:00,
2012-10-23 13:27:00,43.7,43.2,28.57,ESE,112,0.0,3.0,98,0.00,,,0.13,meteohub,2012-10-23 20:27:00,
2012-10-23 13:32:00,43.7,43.2,28.57,SSE,158,0.0,3.0,98,0.00,,,0.13,meteohub,2012-10-23 20:32:00,
2012-10-23 13:37:00,43.7,43.2,28.57,SSE,158,0.0,3.0,98,0.00,,,0.13,meteohub,2012-10-23 20:37:00,
2012-10-23 13:42:00,43.7,43.2,28.57,SSE,158,0.0,1.0,98,0.00,,,0.13,meteohub,2012-10-23 20:42:00,
2012-10-23 13:47:00,44.1,43.5,28.57,SSE,158,2.0,2.0,98,0.00,,,0.13,meteohub,2012-10-23 20:47:00,
2012-10-23 13:52:00,44.4,43.9,28.57,ESE,112,0.0,2.0,98,0.00,,,0.13,meteohub,2012-10-23 20:52:00,
2012-10-23 13:57:00,44.8,44.2,28.54,ESE,112,1.0,2.0,98,0.00,,,0.13,meteohub,2012-10-23 20:57:00,
2012-10-23 14:02:00,45.0,44.4,28.54,ESE,112,0.0,2.0,98,0.00,,,0.13,meteohub,2012-10-23 21:02:00,
2012-10-23 14:07:00,44.6,44.1,28.54,ESE,112,0.0,2.0,98,0.00,,,0.13,meteohub,2012-10-23 21:07:00,
2012-10-23 14:12:00,44.2,43.7,28.54,ESE,112,0.0,2.0,98,0.00,,,0.13,meteohub,2012-10-23 21:12:00,
2012-10-23 14:17:00,43.9,43.3,28.54,ESE,112,0.0,2.0,98,0.00,,,0.13,meteohub,2012-10-23 21:17:00,
2012-10-23 14:22:00,43.5,43.0,28.54,East,90,0.0,0.0,98,0.00,,,0.13,meteohub,2012-10-23 21:22:00,
2012-10-23 14:27:00,43.3,42.8,28.57,WSW,248,0.0,3.0,98,0.04,,,0.17,meteohub,2012-10-23 21:27:00,
2012-10-23 14:32:00,43.0,42.4,28.57,WSW,248,0.0,3.0,98,0.04,,,0.17,meteohub,2012-10-23 21:32:00,
2012-10-23 14:37:00,43.3,42.8,28.57,SW,225,0.0,3.0,98,0.04,,,0.17,meteohub,2012-10-23 21:37:00,
2012-10-23 14:42:00,43.7,43.2,28.54,SSE,158,1.0,1.0,98,0.04,,,0.17,meteohub,2012-10-23 21:42:00,
2012-10-23 14:47:00,43.5,43.0,28.54,SSE,158,1.0,1.0,98,0.04,,,0.17,meteohub,2012-10-23 21:47:00,
2012-10-23 14:52:00,43.7,43.2,28.54,SSE,158,0.0,2.0,98,0.04,,,0.17,meteohub,2012-10-23 21:52:00,
2012-10-23 14:57:00,43.5,43.0,28.54,SSE,158,0.0,2.0,98,0.04,,,0.17,meteohub,2012-10-23 21:57:00,
2012-10-23 15:02:00,43.5,43.0,28.54,SSE,158,0.0,2.0,98,0.04,,,0.17,meteohub,2012-10-23 22:02:00,
2012-10-23 15:07:00,43.3,42.8,28.54,WNW,292,4.0,0.0,98,0.04,,,0.17,meteohub,2012-10-23 22:07:00,
2012-10-23 15:12:00,43.0,42.4,28.54,South,180,3.0,4.0,98,0.04,,,0.17,meteohub,2012-10-23 22:12:00,
2012-10-23 15:32:00,41.4,40.8,28.57,SE,135,0.0,3.0,98,0.00,,,0.17,meteohub,2012-10-23 22:32:00,
2012-10-23 16:03:00,42.3,41.7,28.57,SE,135,0.0,0.0,98,0.00,,,0.17,meteohub,2012-10-23 23:03:00,
2012-10-23 16:09:00,42.3,41.7,28.57,SE,135,1.0,0.0,98,0.00,,,0.17,meteohub,2012-10-23 23:09:00,
2012-10-23 16:14:00,42.4,41.9,28.57,SE,135,0.0,0.0,98,0.00,,,0.25,meteohub,2012-10-23 23:14:00,
2012-10-23 16:20:00,42.4,41.9,28.57,SE,135,0.0,1.0,98,0.00,,,0.25,meteohub,2012-10-23 23:20:00,
2012-10-23 16:25:00,42.4,41.9,28.57,SE,135,0.0,1.0,98,0.00,,,0.25,meteohub,2012-10-23 23:25:00,
2012-10-23 16:31:00,42.6,42.1,28.57,SE,135,0.0,1.0,98,0.00,,,0.25,meteohub,2012-10-23 23:31:00,
2012-10-23 16:36:00,42.6,42.1,28.57,SE,135,0.0,1.0,98,0.00,,,0.25,meteohub,2012-10-23 23:36:00,
2012-10-23 16:42:00,42.8,42.3,28.57,SE,135,0.0,0.0,98,0.00,,,0.25,meteohub,2012-10-23 23:42:00,
2012-10-23 16:47:00,42.6,42.1,28.57,SE,135,1.0,0.0,98,0.00,,,0.25,meteohub,2012-10-23 23:47:00,
2012-10-23 16:52:00,42.6,42.1,28.57,SSW,202,0.0,2.0,98,0.00,,,0.25,meteohub,2012-10-23 23:52:00,
2012-10-23 16:57:00,42.4,41.9,28.57,SSW,202,0.0,2.0,98,0.00,,,0.25,meteohub,2012-10-23 23:57:00,
2012-10-23 17:02:00,42.4,41.9,28.57,SSW,202,1.0,2.0,98,0.00,,,0.25,meteohub,2012-10-24 00:02:00,
2012-10-23 17:07:00,42.3,41.7,28.57,South,180,0.0,2.0,98,0.00,,,0.25,meteohub,2012-10-24 00:07:00,
2012-10-23 17:12:00,42.3,41.7,28.57,South,180,0.0,4.0,98,0.00,,,0.25,meteohub,2012-10-24 00:12:00,
2012-10-23 17:17:00,42.1,41.5,28.57,South,180,1.0,4.0,98,0.00,,,0.25,meteohub,2012-10-24 00:17:00,
2012-10-23 17:22:00,42.1,41.5,28.57,South,180,0.0,3.0,98,0.00,,,0.25,meteohub,2012-10-24 00:22:00,
2012-10-23 17:27:00,42.1,41.5,28.57,South,180,0.0,1.0,98,0.00,,,0.25,meteohub,2012-10-24 00:27:00,
2012-10-23 17:32:00,41.9,41.4,28.57,South,180,0.0,1.0,98,0.00,,,0.25,meteohub,2012-10-24 00:32:00,
2012-10-23 17:37:00,41.7,41.2,28.57,South,180,0.0,0.0,98,0.00,,,0.25,meteohub,2012-10-24 00:37:00,
2012-10-23 17:42:00,41.7,41.2,28.57,South,180,0.0,0.0,98,0.00,,,0.25,meteohub,2012-10-24 00:42:00,
2012-10-23 17:47:00,41.7,41.2,28.57,South,180,0.0,0.0,98,0.00,,,0.25,meteohub,2012-10-24 00:47:00,
2012-10-23 17:52:00,41.7,41.2,28.57,South,180,0.0,1.0,98,0.00,,,0.25,meteohub,2012-10-24 00:52:00,
2012-10-23 17:57:00,41.7,41.2,28.57,South,180,0.0,1.0,98,0.00,,,0.25,meteohub,2012-10-24 00:57:00,
2012-10-23 18:02:00,41.5,41.0,28.57,South,180,0.0,0.0,98,0.00,,,0.25,meteohub,2012-10-24 01:02:00,
2012-10-23 18:07:00,41.5,41.0,28.57,SSW,202,1.0,0.0,98,0.00,,,0.25,meteohub,2012-10-24 01:07:00,
2012-10-23 18:12:00,41.5,41.0,28.57,SSW,202,0.0,1.0,98,0.00,,,0.25,meteohub,2012-10-24 01:12:00,
2012-10-23 18:17:00,41.4,40.8,28.57,SSW,202,0.0,1.0,98,0.00,,,0.25,meteohub,2012-10-24 01:17:00,
2012-10-23 18:22:00,41.2,40.6,28.57,SSW,202,0.0,1.0,98,0.00,,,0.25,meteohub,2012-10-24 01:22:00,
2012-10-23 18:27:00,41.2,40.6,28.57,SSW,202,0.0,0.0,98,0.00,,,0.25,meteohub,2012-10-24 01:27:00,
2012-10-23 18:32:00,41.0,40.5,28.57,SSW,202,0.0,0.0,98,0.00,,,0.25,meteohub,2012-10-24 01:32:00,
2012-10-23 18:37:00,40.8,40.3,28.57,SSW,202,0.0,0.0,98,0.00,,,0.25,meteohub,2012-10-24 01:37:00,
2012-10-23 18:42:00,40.6,40.1,28.57,SSW,202,0.0,0.0,98,0.00,,,0.25,meteohub,2012-10-24 01:42:00,
2012-10-23 18:47:00,40.6,40.1,28.57,SSW,202,0.0,0.0,98,0.00,,,0.25,meteohub,2012-10-24 01:47:00,
2012-10-23 18:52:00,40.6,40.1,28.57,SSW,202,0.0,0.0,98,0.00,,,0.25,meteohub,2012-10-24 01:52:00,
2012-10-23 18:57:00,40.6,40.1,28.57,SSW,202,0.0,0.0,98,0.00,,,0.25,meteohub,2012-10-24 01:57:00,
2012-10-23 19:02:00,40.6,40.1,28.57,SSW,202,0.0,0.0,98,0.04,,,0.29,meteohub,2012-10-24 02:02:00,
2012-10-23 19:07:00,40.6,40.1,28.57,SSW,202,0.0,0.0,98,0.04,,,0.29,meteohub,2012-10-24 02:07:00,
2012-10-23 19:13:00,40.6,40.1,28.57,SSW,202,0.0,1.0,98,0.04,,,0.29,meteohub,2012-10-24 02:13:00,
2012-10-23 19:18:00,40.6,40.1,28.57,South,180,0.0,1.0,98,0.04,,,0.29,meteohub,2012-10-24 02:18:00,
2012-10-23 19:23:00,40.6,40.1,28.57,SE,135,2.0,2.0,98,0.04,,,0.29,meteohub,2012-10-24 02:23:00,
2012-10-23 19:29:00,40.6,40.1,28.57,SSE,158,0.0,2.0,98,0.04,,,0.29,meteohub,2012-10-24 02:29:00,
2012-10-23 19:34:00,40.6,40.1,28.57,SSE,158,0.0,2.0,98,0.04,,,0.29,meteohub,2012-10-24 02:34:00,
2012-10-23 19:39:00,40.6,40.1,28.57,SSE,158,0.0,2.0,98,0.04,,,0.29,meteohub,2012-10-24 02:39:00,
2012-10-23 19:45:00,40.6,40.1,28.54,SSE,158,0.0,1.0,98,0.04,,,0.29,meteohub,2012-10-24 02:45:00,
2012-10-23 19:50:00,40.6,40.1,28.54,SSE,158,0.0,1.0,98,0.04,,,0.29,meteohub,2012-10-24 02:50:00,
2012-10-23 19:56:00,40.6,40.1,28.54,SSE,158,0.0,1.0,98,0.04,,,0.29,meteohub,2012-10-24 02:56:00,
2012-10-23 20:01:00,40.6,40.1,28.54,SSE,158,0.0,0.0,98,0.00,,,0.29,meteohub,2012-10-24 03:01:00,
2012-10-23 20:07:00,40.6,40.1,28.54,SSE,158,0.0,0.0,98,0.00,,,0.29,meteohub,2012-10-24 03:07:00,
2012-10-23 20:12:00,40.6,40.1,28.54,SSE,158,0.0,0.0,98,0.00,,,0.29,meteohub,2012-10-24 03:12:00,
2012-10-23 20:17:00,40.6,40.1,28.54,SSE,158,0.0,0.0,98,0.00,,,0.29,meteohub,2012-10-24 03:17:00,
2012-10-23 20:22:00,40.6,40.1,28.54,SE,135,0.0,1.0,98,0.00,,,0.29,meteohub,2012-10-24 03:22:00,
2012-10-23 20:27:00,40.6,40.1,28.54,SE,135,0.0,1.0,98,0.00,,,0.29,meteohub,2012-10-24 03:27:00,
2012-10-23 20:32:00,40.6,40.1,28.54,SE,135,0.0,1.0,98,0.00,,,0.29,meteohub,2012-10-24 03:32:00,
2012-10-23 20:37:00,40.6,40.1,28.54,SE,135,0.0,0.0,98,0.00,,,0.29,meteohub,2012-10-24 03:37:00,
2012-10-23 20:42:00,40.6,40.1,28.54,SE,135,0.0,0.0,98,0.00,,,0.29,meteohub,2012-10-24 03:42:00,
2012-10-23 20:47:00,40.6,40.1,28.54,SE,135,0.0,0.0,98,0.04,,,0.33,meteohub,2012-10-24 03:47:00,
2012-10-23 20:52:00,40.6,40.1,28.54,SE,135,0.0,0.0,98,0.04,,,0.33,meteohub,2012-10-24 03:52:00,
2012-10-23 20:57:00,40.6,40.1,28.54,SE,135,0.0,0.0,98,0.04,,,0.33,meteohub,2012-10-24 03:57:00,
2012-10-23 21:00:00,40.6,40.1,28.54,SSE,158,0.0,0.0,98,0.04,,,0.33,meteohub,2012-10-24 04:00:00,
2012-10-23 21:01:00,40.6,40.1,28.54,SSE,158,0.0,0.0,98,0.04,,,0.33,meteohub,2012-10-24 04:01:00,
2012-10-23 21:04:00,40.6,40.1,28.54,SSE,158,0.0,0.0,98,0.04,,,0.33,meteohub,2012-10-24 04:04:00,
2012-10-23 21:09:00,40.6,40.1,28.54,SSE,158,0.0,0.0,98,0.04,,,0.33,meteohub,2012-10-24 04:09:00,
2012-10-23 21:14:00,40.6,40.1,28.54,SSE,158,0.0,0.0,98,0.04,,,0.33,meteohub,2012-10-24 04:14:00,
2012-10-23 21:20:00,40.6,40.1,28.54,SSW,202,1.0,0.0,98,0.04,,,0.33,meteohub,2012-10-24 04:20:00,
2012-10-23 21:25:00,40.6,40.1,28.54,SSE,158,0.0,2.0,98,0.04,,,0.33,meteohub,2012-10-24 04:25:00,
2012-10-23 21:31:00,40.6,40.1,28.54,SSW,202,0.0,2.0,98,0.04,,,0.33,meteohub,2012-10-24 04:31:00,
2012-10-23 21:36:00,40.6,40.1,28.54,WSW,248,1.0,2.0,98,0.04,,,0.33,meteohub,2012-10-24 04:36:00,
2012-10-23 21:41:00,40.6,40.1,28.54,SSW,202,0.0,2.0,98,0.04,,,0.33,meteohub,2012-10-24 04:41:00,
2012-10-23 21:47:00,40.6,40.1,28.54,SSW,202,0.0,2.0,98,0.00,,,0.33,meteohub,2012-10-24 04:47:00,
2012-10-23 21:52:00,40.6,40.1,28.54,SSW,202,0.0,2.0,98,0.00,,,0.33,meteohub,2012-10-24 04:52:00,
2012-10-23 21:57:00,40.6,40.1,28.54,SSW,202,0.0,0.0,98,0.00,,,0.33,meteohub,2012-10-24 04:57:00,
2012-10-23 22:02:00,40.6,40.1,28.54,SSW,202,0.0,0.0,98,0.00,,,0.33,meteohub,2012-10-24 05:02:00,
2012-10-23 22:07:00,40.5,39.9,28.54,SSW,202,0.0,0.0,98,0.00,,,0.33,meteohub,2012-10-24 05:07:00,
2012-10-23 22:12:00,40.5,39.9,28.54,SSW,202,0.0,0.0,98,0.00,,,0.33,meteohub,2012-10-24 05:12:00,
2012-10-23 22:17:00,40.5,39.9,28.54,SSW,202,0.0,0.0,98,0.04,,,0.37,meteohub,2012-10-24 05:17:00,
2012-10-23 22:22:00,40.5,39.9,28.54,SSW,202,0.0,0.0,98,0.04,,,0.37,meteohub,2012-10-24 05:22:00,
2012-10-23 22:27:00,40.5,39.9,28.54,SSW,202,0.0,0.0,98,0.04,,,0.37,meteohub,2012-10-24 05:27:00,
2012-10-23 22:32:00,40.5,39.9,28.54,SSW,202,0.0,0.0,98,0.04,,,0.37,meteohub,2012-10-24 05:32:00,
2012-10-23 22:37:00,40.5,39.9,28.54,SSW,202,0.0,0.0,98,0.04,,,0.37,meteohub,2012-10-24 05:37:00,
2012-10-23 22:42:00,40.5,39.9,28.54,SSW,202,0.0,0.0,98,0.04,,,0.37,meteohub,2012-10-24 05:42:00,
2012-10-23 22:47:00,40.5,39.9,28.54,SSW,202,0.0,0.0,98,0.09,,,0.42,meteohub,2012-10-24 05:47:00,
2012-10-23 22:52:00,40.5,39.9,28.54,SSW,202,0.0,0.0,98,0.09,,,0.42,meteohub,2012-10-24 05:52:00,
2012-10-23 22:57:00,40.5,39.9,28.54,SSW,202,1.0,0.0,98,0.09,,,0.42,meteohub,2012-10-24 05:57:00,
2012-10-23 23:02:00,40.5,39.9,28.54,SSW,202,0.0,1.0,98,0.09,,,0.42,meteohub,2012-10-24 06:02:00,
2012-10-23 23:07:00,40.5,39.9,28.54,SSW,202,1.0,1.0,98,0.09,,,0.42,meteohub,2012-10-24 06:07:00,
2012-10-23 23:12:00,40.5,39.9,28.54,SSW,202,0.0,1.0,98,0.09,,,0.42,meteohub,2012-10-24 06:12:00,
2012-10-23 23:17:00,40.3,39.7,28.54,SSW,202,0.0,1.0,98,0.09,,,0.46,meteohub,2012-10-24 06:17:00,
2012-10-23 23:22:00,40.3,39.7,28.54,SSW,202,1.0,1.0,98,0.09,,,0.46,meteohub,2012-10-24 06:22:00,
2012-10-23 23:27:00,40.3,39.7,28.54,WNW,292,2.0,2.0,98,0.09,,,0.46,meteohub,2012-10-24 06:27:00,
2012-10-23 23:32:00,40.3,39.7,28.54,SW,225,0.0,2.0,98,0.09,,,0.46,meteohub,2012-10-24 06:32:00,
2012-10-23 23:37:00,40.3,39.7,28.54,SW,225,0.0,2.0,98,0.09,,,0.46,meteohub,2012-10-24 06:37:00,
2012-10-23 23:42:00,40.3,39.7,28.54,SW,225,0.0,2.0,98,0.09,,,0.46,meteohub,2012-10-24 06:42:00,
2012-10-23 23:47:00,40.3,39.7,28.54,SW,225,0.0,1.0,98,0.04,,,0.46,meteohub,2012-10-24 06:47:00,
2012-10-23 23:52:00,40.3,39.7,28.54,SW,225,0.0,0.0,98,0.04,,,0.46,meteohub,2012-10-24 06:52:00,
2012-10-23 23:57:00,40.3,39.7,28.54,SW,225,0.0,0.0,98,0.04,,,0.46,meteohub,2012-10-24 06:57:00,